createdAt,value
2022-11-10T00:02:00.726Z,87.40
2022-11-10T00:04:46.036Z,87.20
2022-11-10T00:07:31.212Z,87.30
2022-11-10T00:10:16.550Z,87.40
2022-11-10T00:13:02.160Z,87.40
2022-11-10T00:16:05.845Z,87.20
2022-11-10T00:18:51.234Z,87.10
2022-11-10T00:21:39.263Z,87.10
2022-11-10T00:24:24.702Z,87.10
2022-11-10T00:27:09.632Z,87.20
2022-11-10T00:29:54.735Z,87.20
2022-11-10T00:32:39.856Z,87.00
2022-11-10T00:35:24.755Z,87.20
2022-11-10T00:38:09.962Z,86.90
2022-11-10T00:40:54.991Z,86.90
2022-11-10T00:43:40.103Z,87.00
2022-11-10T00:46:25.180Z,86.70
2022-11-10T00:49:10.204Z,87.20
2022-11-10T00:51:55.347Z,87.00
2022-11-10T00:54:40.347Z,87.40
2022-11-10T00:57:25.448Z,87.40
2022-11-10T01:00:10.502Z,87.50
2022-11-10T01:02:56.006Z,87.60
2022-11-10T01:05:41.402Z,87.80
2022-11-10T01:08:26.719Z,87.90
2022-11-10T01:11:16.455Z,88.10
2022-11-10T01:14:01.385Z,88.20
2022-11-10T01:16:46.522Z,88.20
2022-11-10T01:19:31.776Z,88.20
2022-11-10T01:22:16.745Z,88.10
2022-11-10T01:25:01.878Z,88.60
2022-11-10T01:27:46.843Z,88.90
2022-11-10T01:30:31.957Z,89.10
2022-11-10T01:33:17.731Z,89.20
2022-11-10T01:36:03.290Z,89.30
2022-11-10T01:38:48.983Z,89.50
2022-11-10T01:41:34.193Z,89.90
2022-11-10T01:44:20.987Z,90.30
2022-11-10T01:47:06.228Z,90.70
2022-11-10T01:49:51.428Z,90.90
2022-11-10T01:52:37.092Z,91.10
2022-11-10T01:55:23.376Z,91.30
2022-11-10T01:58:08.974Z,91.10
2022-11-10T02:00:54.580Z,91.00
2022-11-10T02:03:59.996Z,91.20
2022-11-10T02:06:46.677Z,91.10
2022-11-10T02:09:32.344Z,90.80
2022-11-10T02:12:36.730Z,91.00
2022-11-10T02:15:22.266Z,91.30
2022-11-10T02:18:07.384Z,90.80
2022-11-10T02:20:52.332Z,90.90
2022-11-10T02:23:37.496Z,90.80
2022-11-10T02:26:24.108Z,90.70
2022-11-10T02:29:09.680Z,90.70
2022-11-10T02:31:54.895Z,90.40
2022-11-10T02:34:39.916Z,90.40
2022-11-10T02:37:25.236Z,90.70
2022-11-10T02:40:10.511Z,89.60
2022-11-10T02:42:55.695Z,85.80
2022-11-10T02:45:46.807Z,85.90
2022-11-10T02:48:31.834Z,84.40
2022-11-10T02:51:17.000Z,84.60
2022-11-10T02:54:02.057Z,85.50
2022-11-10T02:56:47.380Z,85.50
2022-11-10T02:59:32.757Z,86.20
2022-11-10T03:02:17.785Z,85.90
2022-11-10T03:05:03.015Z,85.70
2022-11-10T03:07:55.408Z,86.20
2022-11-10T03:10:40.357Z,86.30
2022-11-10T03:13:32.086Z,86.60
2022-11-10T03:16:25.257Z,86.90
2022-11-10T03:19:10.232Z,87.20
2022-11-10T03:21:55.447Z,87.40
2022-11-10T03:24:40.633Z,86.90
2022-11-10T03:27:26.012Z,87.40
2022-11-10T03:30:11.257Z,86.70
2022-11-10T03:32:56.831Z,86.60
2022-11-10T03:35:42.024Z,87.20
2022-11-10T03:38:27.011Z,86.90
2022-11-10T03:41:19.413Z,87.00
2022-11-10T03:44:05.964Z,87.20
2022-11-10T03:46:51.817Z,87.10
2022-11-10T03:49:37.075Z,86.90
2022-11-10T03:52:22.339Z,87.10
2022-11-10T03:55:07.603Z,87.20
2022-11-10T03:57:52.965Z,87.10
2022-11-10T04:00:38.077Z,87.30
2022-11-10T04:03:23.924Z,87.00
2022-11-10T04:06:29.644Z,87.10
2022-11-10T04:09:14.744Z,87.30
2022-11-10T04:12:22.118Z,87.40
2022-11-10T04:15:31.626Z,87.70
2022-11-10T04:18:26.510Z,87.70
2022-11-10T04:21:12.192Z,88.00
2022-11-10T04:23:57.646Z,88.00
2022-11-10T04:26:42.985Z,87.30
2022-11-10T04:29:28.339Z,87.00
2022-11-10T04:32:13.569Z,87.20
2022-11-10T04:34:58.812Z,86.90
2022-11-10T04:37:45.940Z,87.00
2022-11-10T04:40:31.169Z,87.00
2022-11-10T04:43:16.363Z,87.40
2022-11-10T04:46:01.777Z,87.20
2022-11-10T04:48:46.903Z,87.00
2022-11-10T04:51:36.535Z,86.60
2022-11-10T04:54:22.027Z,86.40
2022-11-10T04:57:07.044Z,86.40
2022-11-10T04:59:52.280Z,86.40
2022-11-10T05:02:39.716Z,86.20
2022-11-10T05:05:25.502Z,86.30
2022-11-10T05:08:10.817Z,85.90
2022-11-10T05:10:56.173Z,85.80
2022-11-10T05:13:41.709Z,85.90
2022-11-10T05:16:26.715Z,85.80
2022-11-10T05:19:11.762Z,86.00
2022-11-10T05:21:56.970Z,85.90
2022-11-10T05:24:42.118Z,86.30
2022-11-10T05:27:27.209Z,85.70
2022-11-10T05:30:12.549Z,86.20
2022-11-10T05:32:57.996Z,86.10
2022-11-10T05:35:44.150Z,86.10
2022-11-10T05:38:29.476Z,86.00
2022-11-10T05:41:14.536Z,86.00
2022-11-10T05:43:59.433Z,85.70
2022-11-10T05:46:44.520Z,86.10
2022-11-10T05:49:29.480Z,86.30
2022-11-10T05:52:15.506Z,86.20
2022-11-10T05:55:00.783Z,85.90
2022-11-10T05:57:46.616Z,85.80
2022-11-10T06:00:32.524Z,85.90
2022-11-10T06:03:18.654Z,86.40
2022-11-10T06:06:04.614Z,86.30
2022-11-10T06:08:49.823Z,86.40
2022-11-10T06:11:35.033Z,86.40
2022-11-10T06:14:20.318Z,86.70
2022-11-10T06:17:05.465Z,86.40
2022-11-10T06:19:50.700Z,86.20
2022-11-10T06:22:36.440Z,86.20
2022-11-10T06:25:22.269Z,86.60
2022-11-10T06:28:08.185Z,86.20
2022-11-10T06:30:56.552Z,85.80
2022-11-10T06:33:42.784Z,85.50
2022-11-10T06:36:28.211Z,86.10
2022-11-10T06:39:13.591Z,85.80
2022-11-10T06:41:58.831Z,85.60
2022-11-10T06:44:44.010Z,85.90
2022-11-10T06:47:30.552Z,85.70
2022-11-10T06:50:15.756Z,85.50
2022-11-10T06:53:01.108Z,85.60
2022-11-10T06:55:46.481Z,85.60
2022-11-10T06:58:31.592Z,84.70
2022-11-10T07:01:22.145Z,83.40
2022-11-10T07:04:19.786Z,84.90
2022-11-10T07:07:05.989Z,85.20
2022-11-10T07:09:51.405Z,84.70
2022-11-10T07:12:36.563Z,84.30
2022-11-10T07:15:22.055Z,84.60
2022-11-10T07:18:07.214Z,84.40
2022-11-10T07:20:52.225Z,83.90
2022-11-10T07:23:37.299Z,83.80
2022-11-10T07:26:22.384Z,84.10
2022-11-10T07:29:07.600Z,84.70
2022-11-10T07:31:53.019Z,84.70
2022-11-10T07:34:38.371Z,84.30
2022-11-10T07:37:23.390Z,84.50
2022-11-10T07:40:08.692Z,84.50
2022-11-10T07:42:54.019Z,84.00
2022-11-10T07:45:39.189Z,84.10
2022-11-10T07:48:24.208Z,84.00
2022-11-10T07:51:09.294Z,83.50
2022-11-10T07:53:54.304Z,83.40
2022-11-10T07:56:39.449Z,83.00
2022-11-10T07:59:24.459Z,83.40
2022-11-10T08:02:11.133Z,83.20
2022-11-10T08:04:56.187Z,82.60
2022-11-10T08:07:41.361Z,82.50
2022-11-10T08:10:30.128Z,82.20
2022-11-10T08:13:15.482Z,82.10
2022-11-10T08:16:00.592Z,82.00
2022-11-10T08:18:45.749Z,81.80
2022-11-10T08:21:31.281Z,81.50
2022-11-10T08:24:16.428Z,80.90
2022-11-10T08:27:01.495Z,81.10
2022-11-10T08:29:46.657Z,81.30
2022-11-10T08:32:31.622Z,81.00
2022-11-10T08:35:16.751Z,81.00
2022-11-10T08:38:09.455Z,81.10
2022-11-10T08:40:56.219Z,80.50
2022-11-10T08:43:41.844Z,81.40
2022-11-10T08:46:27.145Z,81.20
2022-11-10T08:49:12.184Z,80.90
2022-11-10T08:51:57.358Z,79.80
2022-11-10T08:54:42.425Z,80.00
2022-11-10T08:57:27.452Z,79.40
2022-11-10T09:00:13.436Z,77.60
2022-11-10T09:03:10.520Z,77.30
2022-11-10T09:05:58.771Z,77.30
2022-11-10T09:08:44.146Z,74.40
2022-11-10T09:11:30.097Z,74.40
2022-11-10T09:14:15.473Z,74.50
2022-11-10T09:17:00.581Z,72.80
2022-11-10T09:19:45.685Z,73.60
2022-11-10T09:22:30.718Z,73.90
2022-11-10T09:25:15.835Z,72.50
2022-11-10T09:28:01.304Z,73.00
2022-11-10T09:30:47.504Z,73.20
2022-11-10T09:33:32.811Z,72.80
2022-11-10T09:36:17.899Z,71.70
2022-11-10T09:39:02.871Z,70.50
2022-11-10T09:41:47.848Z,70.10
2022-11-10T09:44:38.845Z,69.80
2022-11-10T09:47:56.986Z,68.00
2022-11-10T09:50:35.935Z,68.50
2022-11-10T09:53:28.089Z,66.30
2022-11-10T09:56:16.610Z,70.10
2022-11-10T09:59:10.600Z,66.00
2022-11-10T10:02:10.343Z,65.10
2022-11-10T10:05:14.165Z,62.10
2022-11-10T10:08:02.431Z,61.80
2022-11-10T10:10:49.305Z,61.60
2022-11-10T10:13:47.032Z,63.30
2022-11-10T10:16:40.085Z,61.40
2022-11-10T10:19:37.605Z,62.90
2022-11-10T10:22:31.780Z,62.60
2022-11-10T10:25:19.973Z,61.80
2022-11-10T10:28:08.464Z,63.60
2022-11-10T10:30:55.475Z,62.70
2022-11-10T10:33:41.008Z,61.00
2022-11-10T10:36:27.569Z,64.00
2022-11-10T10:39:15.036Z,65.20
2022-11-10T10:42:00.536Z,63.60
2022-11-10T10:45:04.358Z,62.60
2022-11-10T10:47:50.817Z,63.60
2022-11-10T10:50:41.967Z,63.80
2022-11-10T10:53:27.599Z,62.20
2022-11-10T10:56:21.506Z,62.70
2022-11-10T10:59:17.011Z,62.00
2022-11-10T11:02:02.136Z,60.60
2022-11-10T11:04:47.086Z,59.90
2022-11-10T11:07:32.432Z,57.90
2022-11-10T11:10:25.396Z,59.30
2022-11-10T11:13:24.111Z,59.70
2022-11-10T11:16:12.195Z,59.30
2022-11-10T11:18:57.357Z,58.30
2022-11-10T11:22:02.533Z,59.70
2022-11-10T11:25:06.108Z,58.30
2022-11-10T11:28:10.264Z,59.50
2022-11-10T11:31:01.582Z,59.30
2022-11-10T11:34:00.697Z,58.60
2022-11-10T11:36:48.790Z,59.50
2022-11-10T11:39:38.177Z,58.10
2022-11-10T11:42:39.931Z,58.30
2022-11-10T11:45:32.372Z,57.30
2022-11-10T11:48:26.703Z,58.30
2022-11-10T11:51:17.932Z,56.20
2022-11-10T11:54:02.746Z,57.30
2022-11-10T11:56:48.873Z,57.40
2022-11-10T11:59:34.111Z,56.90
2022-11-10T12:02:19.141Z,54.30
2022-11-10T12:05:11.787Z,57.40
2022-11-10T12:08:15.409Z,58.70
2022-11-10T12:11:00.332Z,58.30
2022-11-10T12:13:51.721Z,57.10
2022-11-10T12:16:38.515Z,54.90
2022-11-10T12:19:26.932Z,55.90
2022-11-10T12:22:32.418Z,55.50
2022-11-10T12:25:32.889Z,55.50
2022-11-10T12:28:30.935Z,56.80
2022-11-10T12:31:18.764Z,55.20
2022-11-10T12:34:10.691Z,55.50
2022-11-10T12:36:57.466Z,55.00
2022-11-10T12:40:01.327Z,54.80
2022-11-10T12:42:50.079Z,54.90
2022-11-10T12:45:38.453Z,53.70
2022-11-10T12:48:24.357Z,54.50
2022-11-10T12:51:14.264Z,53.60
2022-11-10T12:53:59.450Z,53.50
2022-11-10T12:56:53.295Z,53.10
2022-11-10T12:59:40.311Z,51.50
2022-11-10T13:02:28.500Z,51.90
2022-11-10T13:05:13.600Z,52.20
2022-11-10T13:08:13.232Z,51.40
2022-11-10T13:11:18.492Z,52.50
2022-11-10T13:14:05.179Z,52.90
2022-11-10T13:16:54.551Z,52.30
2022-11-10T13:19:39.993Z,53.90
2022-11-10T13:22:27.977Z,50.30
2022-11-10T13:25:31.771Z,49.90
2022-11-10T13:28:36.793Z,50.10
2022-11-10T13:31:28.342Z,52.20
2022-11-10T13:34:19.817Z,51.60
2022-11-10T13:37:23.883Z,49.10
2022-11-10T13:40:21.100Z,43.50
2022-11-10T13:43:19.519Z,39.40
2022-11-10T13:46:05.381Z,38.30
2022-11-10T13:48:53.739Z,36.40
2022-11-10T13:51:43.704Z,34.80
2022-11-10T13:54:55.265Z,34.00
2022-11-10T13:57:41.775Z,33.60
2022-11-10T14:00:28.462Z,33.20
2022-11-10T14:03:32.756Z,32.10
2022-11-10T14:06:20.920Z,32.20
2022-11-10T14:09:25.929Z,31.70
2022-11-10T14:12:20.496Z,30.50
2022-11-10T14:15:19.313Z,30.30
2022-11-10T14:18:14.413Z,29.90
2022-11-10T14:21:00.632Z,30.60
2022-11-10T14:23:47.631Z,30.50
2022-11-10T14:26:35.819Z,31.10
2022-11-10T14:29:26.864Z,30.50
2022-11-10T14:32:22.280Z,30.20
2022-11-10T14:35:17.390Z,30.30
2022-11-10T14:38:04.966Z,31.30
2022-11-10T14:40:50.550Z,32.60
2022-11-10T14:43:36.951Z,32.20
2022-11-10T14:46:23.544Z,32.90
2022-11-10T14:49:10.012Z,33.10
2022-11-10T14:51:56.764Z,34.30
2022-11-10T14:54:44.144Z,35.20
2022-11-10T14:57:29.638Z,36.10
2022-11-10T15:00:17.129Z,37.70
2022-11-10T15:03:02.657Z,39.40
2022-11-10T15:05:48.303Z,39.60
2022-11-10T15:08:33.742Z,40.90
2022-11-10T15:11:35.537Z,42.90
2022-11-10T15:14:38.119Z,45.20
2022-11-10T15:17:42.794Z,47.70
2022-11-10T15:20:38.725Z,50.10
2022-11-10T15:23:32.064Z,52.70
2022-11-10T15:26:23.796Z,55.00
2022-11-10T15:29:28.597Z,56.50
2022-11-10T15:32:19.813Z,58.40
2022-11-10T15:35:23.950Z,59.70
2022-11-10T15:38:09.084Z,61.10
2022-11-10T15:41:05.326Z,62.00
2022-11-10T15:43:50.847Z,62.30
2022-11-10T15:46:36.025Z,62.70
2022-11-10T15:49:32.027Z,61.90
2022-11-10T15:52:19.451Z,61.80
2022-11-10T15:55:04.746Z,63.90
2022-11-10T15:57:49.745Z,64.00
2022-11-10T16:00:34.803Z,65.50
2022-11-10T16:03:20.823Z,65.30
2022-11-10T16:06:06.683Z,65.50
2022-11-10T16:08:51.849Z,66.00
2022-11-10T16:11:37.116Z,66.60
2022-11-10T16:14:22.501Z,66.90
2022-11-10T16:17:09.564Z,67.20
2022-11-10T16:19:54.831Z,66.90
2022-11-10T16:22:39.853Z,67.80
2022-11-10T16:25:27.744Z,68.50
2022-11-10T16:28:14.776Z,68.70
2022-11-10T16:31:00.179Z,67.90
2022-11-10T16:33:46.129Z,67.40
2022-11-10T16:36:33.069Z,68.50
2022-11-10T16:39:18.501Z,68.80
2022-11-10T16:42:03.548Z,68.70
2022-11-10T16:44:48.627Z,69.00
2022-11-10T16:47:33.627Z,69.10
2022-11-10T16:50:27.952Z,68.80
2022-11-10T16:53:14.873Z,69.70
2022-11-10T16:56:00.216Z,69.80
2022-11-10T16:58:45.170Z,70.70
2022-11-10T17:01:31.928Z,70.40
2022-11-10T17:04:17.391Z,70.60
2022-11-10T17:07:02.519Z,70.30
2022-11-10T17:09:48.044Z,70.40
2022-11-10T17:12:32.954Z,71.40
2022-11-10T17:15:19.717Z,69.60
2022-11-10T17:18:05.668Z,69.00
2022-11-10T17:20:51.927Z,70.30
2022-11-10T17:23:37.362Z,70.30
2022-11-10T17:26:22.335Z,70.80
2022-11-10T17:29:14.114Z,70.10
2022-11-10T17:31:59.499Z,72.00
2022-11-10T17:34:44.782Z,72.80
2022-11-10T17:37:29.815Z,73.60
2022-11-10T17:40:17.747Z,72.90
2022-11-10T17:43:03.062Z,72.80
2022-11-10T17:45:48.063Z,72.40
2022-11-10T17:48:33.276Z,71.70
2022-11-10T17:51:19.532Z,72.40
2022-11-10T17:54:05.812Z,72.50
2022-11-10T17:56:50.782Z,72.00
2022-11-10T17:59:35.716Z,72.20
2022-11-10T18:02:20.912Z,72.80
2022-11-10T18:05:06.471Z,74.20
2022-11-10T18:07:51.999Z,74.60
2022-11-10T18:10:40.606Z,75.90
2022-11-10T18:13:25.820Z,75.30
2022-11-10T18:16:12.901Z,73.60
2022-11-10T18:18:58.673Z,74.70
2022-11-10T18:21:44.062Z,74.10
2022-11-10T18:24:29.286Z,74.10
2022-11-10T18:27:14.260Z,73.00
2022-11-10T18:29:59.396Z,72.70
2022-11-10T18:32:44.470Z,73.00
2022-11-10T18:35:29.646Z,73.10
2022-11-10T18:38:14.654Z,73.30
2022-11-10T18:41:22.208Z,70.90
2022-11-10T18:44:07.387Z,71.40
2022-11-10T18:46:52.568Z,71.80
2022-11-10T18:49:37.528Z,72.60
2022-11-10T18:52:22.588Z,72.90
2022-11-10T18:55:07.937Z,72.60
2022-11-10T18:57:53.447Z,72.50
2022-11-10T19:00:38.516Z,73.00
2022-11-10T19:03:23.967Z,73.00
2022-11-10T19:06:10.069Z,72.70
2022-11-10T19:08:55.581Z,72.50
2022-11-10T19:11:40.780Z,72.90
2022-11-10T19:14:25.728Z,73.20
2022-11-10T19:17:10.759Z,72.60
2022-11-10T19:19:56.822Z,73.20
2022-11-10T19:22:41.898Z,73.20
2022-11-10T19:25:27.059Z,74.20
2022-11-10T19:28:12.166Z,73.70
2022-11-10T19:31:01.303Z,73.90
2022-11-10T19:33:46.722Z,73.90
2022-11-10T19:36:32.056Z,74.60
2022-11-10T19:39:17.359Z,74.20
2022-11-10T19:42:02.768Z,74.60
2022-11-10T19:44:48.065Z,75.00
2022-11-10T19:47:33.268Z,75.40
2022-11-10T19:50:18.304Z,74.40
2022-11-10T19:53:03.465Z,74.90
2022-11-10T19:55:48.483Z,74.30
2022-11-10T19:58:37.838Z,73.80
2022-11-10T20:01:23.389Z,73.40
2022-11-10T20:04:09.917Z,73.20
2022-11-10T20:07:14.225Z,74.10
2022-11-10T20:10:00.276Z,74.10
2022-11-10T20:12:45.444Z,73.30
2022-11-10T20:15:30.636Z,73.10
2022-11-10T20:18:15.945Z,74.90
2022-11-10T20:21:05.206Z,75.70
2022-11-10T20:23:54.193Z,74.70
2022-11-10T20:26:39.717Z,74.00
2022-11-10T20:29:24.686Z,73.50
2022-11-10T20:32:10.053Z,73.80
2022-11-10T20:34:55.222Z,73.30
2022-11-10T20:37:40.511Z,73.10
2022-11-10T20:40:43.324Z,73.00
2022-11-10T20:43:29.557Z,73.10
2022-11-10T20:46:27.861Z,73.20
2022-11-10T20:49:21.169Z,73.40
2022-11-10T20:52:06.422Z,73.80
2022-11-10T20:54:52.108Z,74.10
2022-11-10T20:57:37.255Z,73.70
2022-11-10T21:00:22.427Z,74.00
2022-11-10T21:03:07.817Z,73.60
2022-11-10T21:05:54.471Z,72.90
2022-11-10T21:08:39.741Z,73.40
2022-11-10T21:11:43.768Z,73.50
2022-11-10T21:14:28.984Z,73.30
2022-11-10T21:17:18.910Z,73.50
2022-11-10T21:20:04.444Z,73.30
2022-11-10T21:22:49.868Z,74.00
2022-11-10T21:25:35.745Z,73.50
2022-11-10T21:28:21.164Z,73.80
2022-11-10T21:31:06.449Z,74.10
2022-11-10T21:33:54.586Z,74.00
2022-11-10T21:36:48.887Z,74.40
2022-11-10T21:39:34.121Z,74.50
2022-11-10T21:42:21.662Z,73.70
2022-11-10T21:45:07.407Z,73.00
2022-11-10T21:47:52.873Z,72.40
2022-11-10T21:50:37.885Z,73.30
2022-11-10T21:53:23.307Z,74.70
2022-11-10T21:56:10.002Z,74.80
2022-11-10T21:58:55.296Z,75.20
2022-11-10T22:01:40.497Z,73.70
2022-11-10T22:04:25.600Z,73.90
2022-11-10T22:07:22.963Z,73.60
2022-11-10T22:10:27.468Z,73.70
2022-11-10T22:13:35.357Z,73.70
2022-11-10T22:16:41.497Z,73.20
2022-11-10T22:19:26.923Z,73.80
2022-11-10T22:22:14.136Z,73.60
2022-11-10T22:24:59.173Z,73.20
2022-11-10T22:27:44.403Z,73.20
2022-11-10T22:30:29.731Z,73.50
2022-11-10T22:33:27.085Z,74.10
2022-11-10T22:36:13.778Z,74.00
2022-11-10T22:39:03.339Z,74.10
2022-11-10T22:42:07.507Z,73.40
2022-11-10T22:44:52.687Z,73.80
2022-11-10T22:47:56.525Z,75.10
2022-11-10T22:50:41.896Z,74.40
2022-11-10T22:53:27.501Z,74.20
2022-11-10T22:56:12.885Z,74.20
2022-11-10T22:59:00.051Z,74.10
2022-11-10T23:01:45.835Z,73.80
2022-11-10T23:04:31.213Z,74.30
2022-11-10T23:07:16.538Z,74.20
2022-11-10T23:10:01.932Z,73.70
2022-11-10T23:12:47.344Z,74.10
2022-11-10T23:15:34.518Z,75.20
2022-11-10T23:18:20.590Z,74.40
2022-11-10T23:21:07.088Z,75.00
2022-11-10T23:23:53.575Z,75.10
2022-11-10T23:26:38.777Z,74.40
2022-11-10T23:29:24.203Z,74.00
2022-11-10T23:32:09.586Z,73.50
2022-11-10T23:34:54.750Z,74.10
2022-11-10T23:37:39.873Z,74.60
2022-11-10T23:40:24.889Z,74.70
2022-11-10T23:43:09.987Z,75.30
2022-11-10T23:46:10.821Z,75.30
2022-11-10T23:48:56.108Z,75.10
2022-11-10T23:51:41.727Z,74.80
2022-11-10T23:54:27.035Z,75.10
2022-11-10T23:57:13.194Z,75.30
2022-11-10T23:59:58.234Z,74.60
